TOM5LP LGSK-LTAC
Flight info
| Callsign | TOM5LP |
|---|---|
| Flight time | 1h 20m |
| Altitude | 31000 |
| Route | ETEKA UW58 KOROS DCT DUGLA DCT ROXUK DCT UMRUN |
| Aircraft | B738/M-SDE2E3FGHIRWXY/LB1 |
Departure
| Time | 2026-04-23 18:36 |
|---|---|
| Airport | Skiathos Island National Airport (LGSK) |
Arrival
| Time | 2026-04-23 19:57 |
|---|---|
| Airport | Esenboğa International Airport (LTAC) |
| Time | Latitude | Longitude | Altitude | Speed | Heading |
|---|---|---|---|---|---|
| 2026-04-23 18:09 | 39.17988 | 23.50276 | 38 ft | 0 kts | 289° |
| 2026-04-23 18:28 | 39.17984 | 23.50295 | 38 ft | 2 kts | 289° |
| 2026-04-23 18:29 | 39.17978 | 23.50315 | 37 ft | 2 kts | 287° |
| 2026-04-23 18:29 | 39.17974 | 23.50335 | 37 ft | 2 kts | 277° |
| 2026-04-23 18:29 | 39.17976 | 23.50356 | 38 ft | 2 kts | 238° |
| 2026-04-23 18:29 | 39.17980 | 23.50364 | 36 ft | 0 kts | 230° |
| 2026-04-23 18:33 | 39.17978 | 23.50362 | 37 ft | 3 kts | 220° |
| 2026-04-23 18:33 | 39.17934 | 23.50377 | 40 ft | 9 kts | 115° |
| 2026-04-23 18:33 | 39.17907 | 23.50442 | 40 ft | 10 kts | 163° |
| 2026-04-23 18:34 | 39.17798 | 23.50407 | 35 ft | 22 kts | 199° |
| 2026-04-23 18:34 | 39.17629 | 23.50332 | 38 ft | 29 kts | 199° |
| 2026-04-23 18:34 | 39.17427 | 23.50243 | 37 ft | 32 kts | 199° |
| 2026-04-23 18:34 | 39.17229 | 23.50154 | 23 ft | 18 kts | 200° |
| 2026-04-23 18:35 | 39.17155 | 23.50121 | 20 ft | 14 kts | 199° |
| 2026-04-23 18:35 | 39.17056 | 23.50057 | 13 ft | 14 kts | 216° |
| 2026-04-23 18:35 | 39.17035 | 23.50068 | 12 ft | 3 kts | 88° |
| 2026-04-23 18:35 | 39.17079 | 23.50092 | 17 ft | 22 kts | 10° |
| 2026-04-23 18:36 | 39.17499 | 23.50273 | 39 ft | 108 kts | 19° |
| 2026-04-23 18:36 | 39.18406 | 23.50677 | 303 ft | 157 kts | 19° |
| 2026-04-23 18:36 | 39.19412 | 23.51091 | 1499 ft | 142 kts | 19° |
| 2026-04-23 18:36 | 39.20332 | 23.51531 | 2552 ft | 142 kts | 20° |
| 2026-04-23 18:37 | 39.21361 | 23.51987 | 2973 ft | 174 kts | 19° |
| 2026-04-23 18:37 | 39.22615 | 23.52541 | 3277 ft | 206 kts | 19° |
| 2026-04-23 18:37 | 39.24050 | 23.53175 | 3642 ft | 227 kts | 19° |
| 2026-04-23 18:37 | 39.25590 | 23.53858 | 4122 ft | 245 kts | 19° |
| 2026-04-23 18:38 | 39.27240 | 23.54593 | 4811 ft | 256 kts | 19° |
| 2026-04-23 18:38 | 39.28932 | 23.55350 | 5830 ft | 258 kts | 19° |
| 2026-04-23 18:38 | 39.30509 | 23.56435 | 6844 ft | 261 kts | 41° |
| 2026-04-23 18:38 | 39.31549 | 23.58370 | 7751 ft | 270 kts | 68° |
| 2026-04-23 18:39 | 39.31823 | 23.60786 | 8671 ft | 278 kts | 92° |
| 2026-04-23 18:39 | 39.31528 | 23.63278 | 9607 ft | 284 kts | 99° |
| 2026-04-23 18:39 | 39.31119 | 23.65803 | 10418 ft | 293 kts | 100° |
| 2026-04-23 18:39 | 39.30669 | 23.68450 | 10690 ft | 319 kts | 101° |
| 2026-04-23 18:40 | 39.30175 | 23.71341 | 11141 ft | 337 kts | 101° |
| 2026-04-23 18:40 | 39.29669 | 23.74329 | 11887 ft | 344 kts | 101° |
| 2026-04-23 18:40 | 39.29157 | 23.77375 | 12705 ft | 350 kts | 101° |
| 2026-04-23 18:40 | 39.28641 | 23.80481 | 13524 ft | 356 kts | 102° |
| 2026-04-23 18:41 | 39.28121 | 23.83630 | 14289 ft | 361 kts | 102° |
| 2026-04-23 18:41 | 39.27601 | 23.86791 | 14996 ft | 368 kts | 102° |
| 2026-04-23 18:41 | 39.27066 | 23.90048 | 15672 ft | 374 kts | 102° |
| 2026-04-23 18:41 | 39.26521 | 23.93366 | 16373 ft | 380 kts | 102° |
| 2026-04-23 18:42 | 39.25968 | 23.96732 | 17079 ft | 386 kts | 102° |
| 2026-04-23 18:42 | 39.25406 | 24.00150 | 17768 ft | 392 kts | 102° |
| 2026-04-23 18:42 | 39.24835 | 24.03618 | 18437 ft | 398 kts | 102° |
| 2026-04-23 18:42 | 39.24253 | 24.07142 | 19036 ft | 403 kts | 102° |
| 2026-04-23 18:43 | 39.23662 | 24.10715 | 19520 ft | 412 kts | 102° |
| 2026-04-23 18:43 | 39.23058 | 24.14359 | 20121 ft | 417 kts | 103° |
| 2026-04-23 18:43 | 39.22449 | 24.18025 | 20788 ft | 419 kts | 103° |
| 2026-04-23 18:43 | 39.21834 | 24.21721 | 21403 ft | 424 kts | 103° |
| 2026-04-23 18:44 | 39.21210 | 24.25458 | 21988 ft | 428 kts | 103° |
| 2026-04-23 18:44 | 39.20587 | 24.29190 | 22566 ft | 433 kts | 103° |
| 2026-04-23 18:44 | 39.19948 | 24.33003 | 23137 ft | 437 kts | 103° |
| 2026-04-23 18:44 | 39.19306 | 24.36831 | 23678 ft | 442 kts | 103° |
| 2026-04-23 18:45 | 39.18653 | 24.40712 | 24124 ft | 446 kts | 104° |
| 2026-04-23 18:45 | 39.17991 | 24.44640 | 24569 ft | 450 kts | 104° |
| 2026-04-23 18:45 | 39.17322 | 24.48604 | 25061 ft | 453 kts | 104° |
| 2026-04-23 18:45 | 39.16650 | 24.52576 | 25547 ft | 456 kts | 104° |
| 2026-04-23 18:46 | 39.15970 | 24.56585 | 26039 ft | 458 kts | 104° |
| 2026-04-23 18:46 | 39.15291 | 24.60580 | 26628 ft | 457 kts | 104° |
| 2026-04-23 18:46 | 39.14611 | 24.64577 | 27289 ft | 455 kts | 104° |
| 2026-04-23 18:46 | 39.13929 | 24.68570 | 27622 ft | 459 kts | 104° |
| 2026-04-23 18:47 | 39.13241 | 24.72593 | 27866 ft | 459 kts | 104° |
| 2026-04-23 18:47 | 39.12554 | 24.76599 | 28034 ft | 457 kts | 104° |
| 2026-04-23 18:47 | 39.11869 | 24.80591 | 28020 ft | 455 kts | 104° |
| 2026-04-23 18:48 | 39.10580 | 24.88532 | 28031 ft | 454 kts | 97° |
| 2026-04-23 18:48 | 39.10778 | 24.96630 | 28030 ft | 454 kts | 77° |
| 2026-04-23 18:49 | 39.12204 | 25.04374 | 27996 ft | 451 kts | 75° |
| 2026-04-23 18:49 | 39.13702 | 25.12209 | 28040 ft | 460 kts | 75° |
| 2026-04-23 18:49 | 39.14472 | 25.16316 | 28042 ft | 471 kts | 75° |
| 2026-04-23 18:50 | 39.14980 | 25.19058 | 28045 ft | 478 kts | 76° |
| 2026-04-23 18:50 | 39.16002 | 25.24653 | 28054 ft | 490 kts | 76° |
| 2026-04-23 18:50 | 39.16781 | 25.28961 | 28028 ft | 499 kts | 76° |
| 2026-04-23 18:51 | 39.18368 | 25.37800 | 28033 ft | 514 kts | 76° |
| 2026-04-23 18:51 | 39.19175 | 25.42311 | 28236 ft | 518 kts | 76° |
| 2026-04-23 18:51 | 39.19981 | 25.46833 | 28633 ft | 518 kts | 76° |
| 2026-04-23 18:51 | 39.20788 | 25.51360 | 29108 ft | 517 kts | 76° |
| 2026-04-23 18:52 | 39.21589 | 25.55865 | 29640 ft | 514 kts | 76° |
| 2026-04-23 18:52 | 39.22384 | 25.60348 | 30166 ft | 512 kts | 76° |
| 2026-04-23 18:52 | 39.23177 | 25.64825 | 30364 ft | 512 kts | 76° |
| 2026-04-23 18:52 | 39.23972 | 25.69325 | 30582 ft | 515 kts | 77° |
| 2026-04-23 18:53 | 39.24764 | 25.73821 | 30846 ft | 513 kts | 76° |
| 2026-04-23 18:53 | 39.25549 | 25.78287 | 31007 ft | 507 kts | 76° |
| 2026-04-23 18:53 | 39.26323 | 25.82699 | 30999 ft | 503 kts | 76° |
| 2026-04-23 18:54 | 39.27858 | 25.91477 | 31021 ft | 502 kts | 76° |
| 2026-04-23 18:54 | 39.29373 | 26.00181 | 31002 ft | 504 kts | 77° |
| 2026-04-23 18:55 | 39.30896 | 26.08982 | 31015 ft | 506 kts | 77° |
| 2026-04-23 18:55 | 39.32430 | 26.17884 | 31017 ft | 509 kts | 77° |
| 2026-04-23 18:56 | 39.33701 | 26.25298 | 31023 ft | 505 kts | 77° |
| 2026-04-23 18:56 | 39.35459 | 26.35596 | 31012 ft | 503 kts | 77° |
| 2026-04-23 18:57 | 39.36954 | 26.44397 | 31016 ft | 506 kts | 77° |
| 2026-04-23 18:57 | 39.38459 | 26.53301 | 31011 ft | 508 kts | 77° |
| 2026-04-23 18:58 | 39.39959 | 26.62220 | 30997 ft | 509 kts | 77° |
| 2026-04-23 18:58 | 39.41461 | 26.71200 | 31037 ft | 512 kts | 77° |
| 2026-04-23 18:59 | 39.42938 | 26.80081 | 30999 ft | 497 kts | 77° |
| 2026-04-23 18:59 | 39.44386 | 26.88820 | 30987 ft | 499 kts | 77° |
| 2026-04-23 19:00 | 39.45851 | 26.97704 | 31002 ft | 510 kts | 78° |
| 2026-04-23 19:00 | 39.47303 | 27.06560 | 30987 ft | 508 kts | 78° |
| 2026-04-23 19:01 | 39.48762 | 27.15499 | 31019 ft | 507 kts | 78° |
| 2026-04-23 19:01 | 39.50220 | 27.24463 | 31010 ft | 512 kts | 78° |
| 2026-04-23 19:02 | 39.51476 | 27.32000 | 31023 ft | 517 kts | 77° |
| 2026-04-23 19:02 | 39.53258 | 27.42581 | 31018 ft | 517 kts | 77° |
| 2026-04-23 19:03 | 39.54779 | 27.51691 | 31006 ft | 517 kts | 78° |
| 2026-04-23 19:03 | 39.56289 | 27.60815 | 31016 ft | 518 kts | 78° |
| 2026-04-23 19:04 | 39.57794 | 27.69961 | 31035 ft | 518 kts | 78° |
| 2026-04-23 19:04 | 39.59288 | 27.79093 | 31019 ft | 517 kts | 78° |
| 2026-04-23 19:05 | 39.60769 | 27.88194 | 31017 ft | 515 kts | 78° |
| 2026-04-23 19:05 | 39.62237 | 27.97258 | 31013 ft | 512 kts | 78° |
| 2026-04-23 19:06 | 39.63674 | 28.06174 | 31024 ft | 511 kts | 78° |
| 2026-04-23 19:06 | 39.64881 | 28.13699 | 31003 ft | 516 kts | 78° |
| 2026-04-23 19:07 | 39.66567 | 28.24272 | 31009 ft | 508 kts | 78° |
| 2026-04-23 19:07 | 39.67758 | 28.31778 | 31010 ft | 507 kts | 78° |
| 2026-04-23 19:08 | 39.69178 | 28.40766 | 30978 ft | 511 kts | 78° |
| 2026-04-23 19:08 | 39.70611 | 28.49894 | 31007 ft | 520 kts | 78° |
| 2026-04-23 19:09 | 39.72048 | 28.59087 | 31014 ft | 518 kts | 78° |
| 2026-04-23 19:09 | 39.73466 | 28.68214 | 30989 ft | 509 kts | 78° |
| 2026-04-23 19:10 | 39.74863 | 28.77254 | 31014 ft | 514 kts | 78° |
| 2026-04-23 19:10 | 39.76261 | 28.86357 | 31005 ft | 520 kts | 78° |
| 2026-04-23 19:11 | 39.77675 | 28.95608 | 31008 ft | 521 kts | 79° |
| 2026-04-23 19:11 | 39.79059 | 29.04710 | 31001 ft | 520 kts | 79° |
| 2026-04-23 19:12 | 39.80451 | 29.13922 | 31016 ft | 515 kts | 79° |
| 2026-04-23 19:12 | 39.81814 | 29.22988 | 31013 ft | 509 kts | 79° |
| 2026-04-23 19:13 | 39.83170 | 29.32062 | 31011 ft | 512 kts | 79° |
| 2026-04-23 19:13 | 39.84526 | 29.41191 | 31015 ft | 516 kts | 79° |
| 2026-04-23 19:14 | 39.85887 | 29.50399 | 31014 ft | 519 kts | 79° |
| 2026-04-23 19:14 | 39.87247 | 29.59656 | 31020 ft | 521 kts | 79° |
| 2026-04-23 19:15 | 39.88602 | 29.68927 | 31018 ft | 522 kts | 79° |
| 2026-04-23 19:15 | 39.89956 | 29.78215 | 31013 ft | 521 kts | 79° |
| 2026-04-23 19:16 | 39.91297 | 29.87404 | 31008 ft | 520 kts | 79° |
| 2026-04-23 19:16 | 39.92643 | 29.96670 | 31023 ft | 520 kts | 79° |
| 2026-04-23 19:17 | 39.94623 | 30.10412 | 31037 ft | 520 kts | 79° |
| 2026-04-23 19:17 | 39.95949 | 30.19688 | 31021 ft | 520 kts | 79° |
| 2026-04-23 19:18 | 39.97267 | 30.28971 | 31012 ft | 521 kts | 79° |
| 2026-04-23 19:18 | 39.98569 | 30.38188 | 31007 ft | 521 kts | 79° |
| 2026-04-23 19:19 | 40.00534 | 30.52213 | 31014 ft | 522 kts | 80° |
| 2026-04-23 19:20 | 40.02473 | 30.66174 | 31016 ft | 522 kts | 80° |
| 2026-04-23 19:20 | 40.03759 | 30.75506 | 31016 ft | 522 kts | 80° |
| 2026-04-23 19:21 | 40.05674 | 30.89511 | 31022 ft | 522 kts | 80° |
| 2026-04-23 19:22 | 40.06934 | 30.98800 | 31000 ft | 518 kts | 80° |
| 2026-04-23 19:22 | 40.08796 | 31.12632 | 31005 ft | 523 kts | 80° |
| 2026-04-23 19:23 | 40.10048 | 31.22007 | 31009 ft | 524 kts | 80° |
| 2026-04-23 19:24 | 40.11904 | 31.36014 | 31043 ft | 524 kts | 81° |
| 2026-04-23 19:24 | 40.13750 | 31.50085 | 30998 ft | 523 kts | 81° |
| 2026-04-23 19:25 | 40.16192 | 31.68914 | 30409 ft | 528 kts | 81° |
| 2026-04-23 19:26 | 40.17412 | 31.78408 | 29872 ft | 530 kts | 81° |
| 2026-04-23 19:26 | 40.18019 | 31.83156 | 28878 ft | 530 kts | 81° |
| 2026-04-23 19:27 | 40.19859 | 31.92422 | 27120 ft | 526 kts | 65° |
| 2026-04-23 19:27 | 40.24397 | 32.05088 | 26033 ft | 501 kts | 63° |
| 2026-04-23 19:28 | 40.27186 | 32.13112 | 25988 ft | 466 kts | 64° |
| 2026-04-23 19:28 | 40.29716 | 32.20639 | 25957 ft | 437 kts | 65° |
| 2026-04-23 19:29 | 40.30916 | 32.24228 | 25962 ft | 423 kts | 64° |
| 2026-04-23 19:29 | 40.33206 | 32.31069 | 25958 ft | 398 kts | 64° |
| 2026-04-23 19:30 | 40.35384 | 32.37576 | 25984 ft | 390 kts | 64° |
| 2026-04-23 19:30 | 40.36462 | 32.40846 | 26024 ft | 401 kts | 66° |
| 2026-04-23 19:30 | 40.39668 | 32.46615 | 25996 ft | 385 kts | 26° |
| 2026-04-23 19:31 | 40.42013 | 32.48125 | 25995 ft | 368 kts | 10° |
| 2026-04-23 19:31 | 40.44445 | 32.49133 | 25979 ft | 365 kts | 7° |
| 2026-04-23 19:31 | 40.46888 | 32.49689 | 25968 ft | 346 kts | 348° |
| 2026-04-23 19:31 | 40.49144 | 32.49115 | 25988 ft | 319 kts | 325° |
| 2026-04-23 19:32 | 40.50896 | 32.47552 | 25983 ft | 295 kts | 302° |
| 2026-04-23 19:32 | 40.51902 | 32.45327 | 25998 ft | 278 kts | 282° |
| 2026-04-23 19:32 | 40.52393 | 32.42880 | 25989 ft | 277 kts | 277° |
| 2026-04-23 19:32 | 40.52783 | 32.40403 | 25994 ft | 278 kts | 276° |
| 2026-04-23 19:33 | 40.53149 | 32.37881 | 26005 ft | 284 kts | 276° |
| 2026-04-23 19:33 | 40.53497 | 32.35297 | 26011 ft | 290 kts | 276° |
| 2026-04-23 19:33 | 40.54178 | 32.30096 | 25989 ft | 286 kts | 276° |
| 2026-04-23 19:34 | 40.54511 | 32.27530 | 25986 ft | 284 kts | 276° |
| 2026-04-23 19:34 | 40.54571 | 32.24974 | 25989 ft | 279 kts | 257° |
| 2026-04-23 19:34 | 40.52221 | 32.21041 | 26006 ft | 295 kts | 212° |
| 2026-04-23 19:35 | 40.50165 | 32.20383 | 26018 ft | 318 kts | 191° |
| 2026-04-23 19:35 | 40.47924 | 32.20648 | 25993 ft | 338 kts | 175° |
| 2026-04-23 19:35 | 40.45652 | 32.21832 | 26009 ft | 368 kts | 158° |
| 2026-04-23 19:35 | 40.43570 | 32.24013 | 26011 ft | 401 kts | 138° |
| 2026-04-23 19:36 | 40.41866 | 32.27050 | 25988 ft | 424 kts | 129° |
| 2026-04-23 19:36 | 40.40339 | 32.30450 | 25992 ft | 438 kts | 125° |
| 2026-04-23 19:36 | 40.38908 | 32.33922 | 25965 ft | 426 kts | 124° |
| 2026-04-23 19:36 | 40.37537 | 32.37302 | 25945 ft | 412 kts | 124° |
| 2026-04-23 19:37 | 40.36190 | 32.40564 | 25755 ft | 404 kts | 126° |
| 2026-04-23 19:37 | 40.34843 | 32.43777 | 25408 ft | 401 kts | 126° |
| 2026-04-23 19:37 | 40.33482 | 32.46983 | 24923 ft | 403 kts | 126° |
| 2026-04-23 19:37 | 40.32097 | 32.50188 | 24391 ft | 406 kts | 126° |
| 2026-04-23 19:38 | 40.30685 | 32.53413 | 23774 ft | 410 kts | 127° |
| 2026-04-23 19:38 | 40.29260 | 32.56646 | 23324 ft | 409 kts | 127° |
| 2026-04-23 19:38 | 40.27828 | 32.59882 | 22641 ft | 413 kts | 126° |
| 2026-04-23 19:38 | 40.26388 | 32.63134 | 22171 ft | 411 kts | 126° |
| 2026-04-23 19:39 | 40.24975 | 32.66329 | 21921 ft | 402 kts | 126° |
| 2026-04-23 19:39 | 40.23584 | 32.69470 | 21572 ft | 392 kts | 127° |
| 2026-04-23 19:39 | 40.22228 | 32.72527 | 21075 ft | 384 kts | 127° |
| 2026-04-23 19:39 | 40.20911 | 32.75550 | 20420 ft | 383 kts | 122° |
| 2026-04-23 19:40 | 40.20178 | 32.78944 | 19739 ft | 395 kts | 97° |
| 2026-04-23 19:40 | 40.20453 | 32.82515 | 19205 ft | 396 kts | 74° |
| 2026-04-23 19:40 | 40.21647 | 32.85719 | 18667 ft | 391 kts | 52° |
| 2026-04-23 19:40 | 40.23536 | 32.88202 | 18054 ft | 382 kts | 32° |
| 2026-04-23 19:41 | 40.25670 | 32.90197 | 17474 ft | 376 kts | 31° |
| 2026-04-23 19:41 | 40.27799 | 32.92138 | 16982 ft | 369 kts | 31° |
| 2026-04-23 19:41 | 40.29876 | 32.94067 | 16476 ft | 363 kts | 31° |
| 2026-04-23 19:41 | 40.31901 | 32.95984 | 15958 ft | 356 kts | 32° |
| 2026-04-23 19:42 | 40.33865 | 32.97859 | 15452 ft | 351 kts | 32° |
| 2026-04-23 19:42 | 40.35821 | 32.99735 | 14949 ft | 345 kts | 32° |
| 2026-04-23 19:42 | 40.37688 | 33.01520 | 14507 ft | 339 kts | 32° |
| 2026-04-23 19:42 | 40.39575 | 33.03328 | 14031 ft | 333 kts | 32° |
| 2026-04-23 19:43 | 40.41433 | 33.05106 | 13548 ft | 327 kts | 32° |
| 2026-04-23 19:43 | 40.43258 | 33.06852 | 13016 ft | 323 kts | 32° |
| 2026-04-23 19:43 | 40.45070 | 33.08590 | 12470 ft | 321 kts | 32° |
| 2026-04-23 19:43 | 40.46873 | 33.10277 | 11954 ft | 317 kts | 27° |
| 2026-04-23 19:44 | 40.48896 | 33.11182 | 11815 ft | 300 kts | 0° |
| 2026-04-23 19:44 | 40.50922 | 33.11053 | 11740 ft | 287 kts | 348° |
| 2026-04-23 19:44 | 40.52894 | 33.10663 | 11435 ft | 286 kts | 347° |
| 2026-04-23 19:44 | 40.54855 | 33.10242 | 11160 ft | 284 kts | 346° |
| 2026-04-23 19:45 | 40.56781 | 33.09822 | 11060 ft | 277 kts | 346° |
| 2026-04-23 19:45 | 40.58667 | 33.09406 | 10875 ft | 273 kts | 346° |
| 2026-04-23 19:45 | 40.60548 | 33.09179 | 10638 ft | 275 kts | 2° |
| 2026-04-23 19:45 | 40.62362 | 33.10017 | 10440 ft | 281 kts | 31° |
| 2026-04-23 19:46 | 40.63684 | 33.11870 | 10350 ft | 280 kts | 58° |
| 2026-04-23 19:46 | 40.64241 | 33.14318 | 10131 ft | 282 kts | 86° |
| 2026-04-23 19:46 | 40.63981 | 33.16871 | 9925 ft | 281 kts | 104° |
| 2026-04-23 19:46 | 40.63475 | 33.19319 | 9860 ft | 273 kts | 105° |
| 2026-04-23 19:47 | 40.63131 | 33.20899 | 9759 ft | 270 kts | 106° |
| 2026-04-23 19:47 | 40.62263 | 33.23976 | 9428 ft | 268 kts | 126° |
| 2026-04-23 19:47 | 40.60910 | 33.25602 | 9136 ft | 264 kts | 155° |
| 2026-04-23 19:47 | 40.59180 | 33.26288 | 8712 ft | 264 kts | 173° |
| 2026-04-23 19:48 | 40.57364 | 33.26615 | 8485 ft | 262 kts | 175° |
| 2026-04-23 19:48 | 40.55524 | 33.26899 | 8097 ft | 269 kts | 176° |
| 2026-04-23 19:48 | 40.53663 | 33.27173 | 8062 ft | 273 kts | 176° |
| 2026-04-23 19:48 | 40.51729 | 33.27452 | 8027 ft | 283 kts | 176° |
| 2026-04-23 19:49 | 40.49763 | 33.27734 | 8007 ft | 283 kts | 176° |
| 2026-04-23 19:49 | 40.47804 | 33.28014 | 7991 ft | 282 kts | 176° |
| 2026-04-23 19:49 | 40.45852 | 33.28289 | 7989 ft | 282 kts | 176° |
| 2026-04-23 19:49 | 40.43922 | 33.28529 | 7982 ft | 275 kts | 181° |
| 2026-04-23 19:50 | 40.42145 | 33.27955 | 7998 ft | 257 kts | 213° |
| 2026-04-23 19:50 | 40.40722 | 33.26603 | 8001 ft | 249 kts | 219° |
| 2026-04-23 19:50 | 40.39346 | 33.25233 | 8001 ft | 247 kts | 219° |
| 2026-04-23 19:50 | 40.37987 | 33.23901 | 7867 ft | 247 kts | 219° |
| 2026-04-23 19:51 | 40.36628 | 33.22582 | 7716 ft | 239 kts | 218° |
| 2026-04-23 19:51 | 40.35294 | 33.21294 | 7362 ft | 238 kts | 218° |
| 2026-04-23 19:51 | 40.33964 | 33.20011 | 7006 ft | 237 kts | 218° |
| 2026-04-23 19:51 | 40.32643 | 33.18736 | 6743 ft | 232 kts | 218° |
| 2026-04-23 19:52 | 40.31779 | 33.17904 | 6665 ft | 224 kts | 218° |
| 2026-04-23 19:52 | 40.30169 | 33.16343 | 6601 ft | 210 kts | 219° |
| 2026-04-23 19:52 | 40.29022 | 33.15220 | 6589 ft | 202 kts | 219° |
| 2026-04-23 19:52 | 40.28273 | 33.14498 | 6571 ft | 195 kts | 218° |
| 2026-04-23 19:53 | 40.27181 | 33.13450 | 6407 ft | 196 kts | 218° |
| 2026-04-23 19:53 | 40.26092 | 33.12403 | 6131 ft | 196 kts | 218° |
| 2026-04-23 19:53 | 40.25006 | 33.11362 | 5873 ft | 192 kts | 218° |
| 2026-04-23 19:53 | 40.23934 | 33.10335 | 5614 ft | 189 kts | 218° |
| 2026-04-23 19:54 | 40.22884 | 33.09329 | 5363 ft | 184 kts | 218° |
| 2026-04-23 19:54 | 40.21881 | 33.08368 | 5104 ft | 173 kts | 218° |
| 2026-04-23 19:54 | 40.20959 | 33.07484 | 4888 ft | 157 kts | 218° |
| 2026-04-23 19:54 | 40.20104 | 33.06663 | 4669 ft | 151 kts | 218° |
| 2026-04-23 19:55 | 40.19259 | 33.05853 | 4429 ft | 151 kts | 218° |
| 2026-04-23 19:55 | 40.18405 | 33.05032 | 4156 ft | 151 kts | 217° |
| 2026-04-23 19:55 | 40.17565 | 33.04221 | 3964 ft | 150 kts | 218° |
| 2026-04-23 19:55 | 40.16727 | 33.03401 | 3813 ft | 150 kts | 219° |
| 2026-04-23 19:56 | 40.15887 | 33.02598 | 3637 ft | 149 kts | 218° |
| 2026-04-23 19:56 | 40.15050 | 33.01782 | 3418 ft | 150 kts | 217° |
| 2026-04-23 19:56 | 40.14215 | 33.00997 | 3203 ft | 149 kts | 217° |
| 2026-04-23 19:56 | 40.13413 | 33.00229 | 3129 ft | 133 kts | 217° |
| 2026-04-23 19:57 | 40.12786 | 32.99633 | 3122 ft | 91 kts | 216° |
| 2026-04-23 19:57 | 40.12415 | 32.99281 | 3118 ft | 38 kts | 212° |
| 2026-04-23 19:57 | 40.12200 | 32.99204 | 3116 ft | 27 kts | 187° |
| 2026-04-23 19:57 | 40.12086 | 32.99187 | 3115 ft | 14 kts | 186° |
| 2026-04-23 19:58 | 40.12000 | 32.99171 | 3114 ft | 11 kts | 192° |
| 2026-04-23 19:58 | 40.11936 | 32.99125 | 3113 ft | 9 kts | 209° |
| 2026-04-23 19:58 | 40.11884 | 32.99075 | 3113 ft | 8 kts | 216° |
| 2026-04-23 19:58 | 40.11843 | 32.99038 | 3113 ft | 7 kts | 214° |
| 2026-04-23 19:59 | 40.11803 | 32.99034 | 3112 ft | 7 kts | 130° |
| 2026-04-23 19:59 | 40.11775 | 32.99086 | 3112 ft | 7 kts | 133° |
| 2026-04-23 19:59 | 40.11735 | 32.99120 | 3112 ft | 7 kts | 152° |
| 2026-04-23 19:59 | 40.11710 | 32.99169 | 3112 ft | 7 kts | 96° |
| 2026-04-23 20:00 | 40.11726 | 32.99233 | 3112 ft | 9 kts | 66° |
| 2026-04-23 20:00 | 40.11749 | 32.99320 | 3112 ft | 10 kts | 73° |
| 2026-04-23 20:00 | 40.11768 | 32.99408 | 3112 ft | 10 kts | 78° |
| 2026-04-23 20:00 | 40.11780 | 32.99496 | 3112 ft | 10 kts | 81° |
| 2026-04-23 20:01 | 40.11781 | 32.99532 | 3112 ft | 4 kts | 97° |
| 2026-04-23 20:01 | 40.11756 | 32.99557 | 3112 ft | 5 kts | 169° |
| 2026-04-23 20:01 | 40.11737 | 32.99559 | 3112 ft | 0 kts | 176° |
| 2026-04-23 20:01 | 40.11726 | 32.99560 | 3112 ft | 2 kts | 176° |
| 2026-04-23 20:02 | 40.11711 | 32.99561 | 3112 ft | 0 kts | 176° |